Washita, Oklahoma
Current Conditions -  °F | °C
As of 1:58 AM on Sunday 26 Oct 2014 (Local Time) from KFSI Reporting Station
Clear Clear  
Wind Chill: 66°   Ceiling: Unl
Heat Index: 66°   Visibility: 10mi
Dew Point: 57°   Wind: 6mph
Humidity: 71%   Direction: 200°SSW
Pressure: 29.97"   Gusts: NA
Location:  35.1°N, 98.34°W
Report Text: KFSI 260658Z AUTO 20005KT 10SM CLR 19/14 A2997 RMK AO2 SLP140 T01910137
Loading
Personal Weather Stations






























Interactive Weather Map New forecast layout! Learn more

10-Day Weather Forecast

Advertisements
Track Severe Weather on mobile